Time;durP1;ratioP1;P1;durP2;ratioP2;P2;SDS_P1;SDS_P2;PMS_P1;PMS_P2;Temp;Humidity;BMP_temperature;BMP_pressure;BME280_temperature;BME280_humidity;BME280_pressure;Samples;Min_cycle;Max_cycle;Signal;HPM_P1;HPM_P2
2021/12/23 00:00:45;;;;;;;14.35;9.05;;;;;;;;;;5087681;28;20040;-59
2021/12/23 00:03:11;;;;;;;18.23;10.13;;;;;;;;;;5090022;28;20387;-60
2021/12/23 00:05:38;;;;;;;15.18;8.77;;;;;;;;;;5090891;28;20044;-59
2021/12/23 00:08:04;;;;;;;12.10;9.07;;;;;;;;;;5089820;28;20036;-58
2021/12/23 00:10:30;;;;;;;16.15;9.18;;;;;;;;;;5089783;28;20059;-60
2021/12/23 00:12:56;;;;;;;17.33;9.23;;;;;;;;;;5090319;28;20036;-60
2021/12/23 00:15:50;;;;;;;13.82;7.88;;;;;;;;;;5090878;28;20040;-60
2021/12/23 00:18:42;;;;;;;14.48;9.38;;;;;;;;;;5087420;28;20054;-60
2021/12/23 00:23:52;;;;;;;14.98;9.45;;;;;;;;;;5091729;28;20047;-59
2021/12/23 00:26:18;;;;;;;14.98;9.48;;;;;;;;;;5091468;28;20482;-59
2021/12/23 00:28:45;;;;;;;18.30;10.10;;;;;;;;;;5090087;28;20032;-60
2021/12/23 00:31:11;;;;;;;17.30;10.20;;;;;;;;;;5091564;28;20555;-59
2021/12/23 00:33:39;;;;;;;18.27;9.63;;;;;;;;;;5087112;28;20044;-59
2021/12/23 00:36:07;;;;;;;18.27;9.95;;;;;;;;;;5091788;28;20252;-60
2021/12/23 00:38:38;;;;;;;13.25;8.75;;;;;;;;;;5090896;28;20558;-59
2021/12/23 00:41:04;;;;;;;17.02;9.55;;;;;;;;;;5091685;28;20490;-59
2021/12/23 00:43:31;;;;;;;18.75;10.35;;;;;;;;;;5089853;28;20554;-58
2021/12/23 00:45:57;;;;;;;16.92;9.90;;;;;;;;;;5091686;28;20047;-60
2021/12/23 00:48:23;;;;;;;15.80;9.43;;;;;;;;;;5090114;28;20036;-59
2021/12/23 00:50:49;;;;;;;14.15;9.85;;;;;;;;;;5091772;28;20115;-60
2021/12/23 00:53:22;;;;;;;14.98;9.10;;;;;;;;;;5089922;28;20447;-59
2021/12/23 00:55:51;;;;;;;15.13;9.52;;;;;;;;;;5122485;27;20075;-59
2021/12/23 00:58:17;;;;;;;16.05;10.13;;;;;;;;;;5089837;28;20163;-61
2021/12/23 01:00:44;;;;;;;17.15;10.02;;;;;;;;;;5091272;28;20090;-60
2021/12/23 01:03:10;;;;;;;18.52;9.90;;;;;;;;;;5090636;28;20454;-59
2021/12/23 01:05:36;;;;;;;14.15;9.77;;;;;;;;;;5088958;28;20044;-60
2021/12/23 01:08:02;;;;;;;15.82;9.55;;;;;;;;;;5088395;28;20089;-59
2021/12/23 01:10:29;;;;;;;15.73;9.98;;;;;;;;;;5090105;28;20075;-60
2021/12/23 01:13:02;;;;;;;16.70;9.85;;;;;;;;;;5090026;28;20414;-59
2021/12/23 01:18:06;;;;;;;18.33;10.00;;;;;;;;;;5091320;28;20040;-60
2021/12/23 01:20:35;;;;;;;16.45;9.57;;;;;;;;;;5090678;28;20089;-59
2021/12/23 01:23:03;;;;;;;16.08;9.43;;;;;;;;;;5088284;28;20028;-59
2021/12/23 01:25:30;;;;;;;16.60;9.60;;;;;;;;;;5089164;28;20937;-60
2021/12/23 01:27:56;;;;;;;16.02;10.30;;;;;;;;;;5090448;28;20040;-59
2021/12/23 01:30:22;;;;;;;16.25;9.95;;;;;;;;;;5089149;28;20402;-60
2021/12/23 01:32:49;;;;;;;17.98;10.38;;;;;;;;;;5088161;28;20043;-59
2021/12/23 01:35:16;;;;;;;17.45;10.45;;;;;;;;;;5084283;28;20119;-59
2021/12/23 01:37:42;;;;;;;17.23;9.88;;;;;;;;;;5086366;28;20032;-59
2021/12/23 01:40:09;;;;;;;20.08;10.15;;;;;;;;;;5085828;28;20093;-60
2021/12/23 01:42:35;;;;;;;17.50;10.35;;;;;;;;;;5084073;28;20040;-59
2021/12/23 01:45:01;;;;;;;18.88;10.60;;;;;;;;;;5089300;28;20056;-60
2021/12/23 01:47:29;;;;;;;16.02;10.38;;;;;;;;;;5088762;28;20122;-62
2021/12/23 01:49:55;;;;;;;16.10;10.07;;;;;;;;;;5087406;28;20040;-59
2021/12/23 01:52:21;;;;;;;17.48;10.43;;;;;;;;;;5088555;28;20040;-59
2021/12/23 01:54:47;;;;;;;16.50;10.73;;;;;;;;;;5087825;28;20385;-59
2021/12/23 01:57:14;;;;;;;15.38;9.55;;;;;;;;;;5088947;28;20120;-59
2021/12/23 01:59:40;;;;;;;17.30;10.20;;;;;;;;;;5088135;28;20122;-59
2021/12/23 02:02:06;;;;;;;17.27;10.50;;;;;;;;;;5087800;28;20528;-58
2021/12/23 02:04:32;;;;;;;15.10;9.80;;;;;;;;;;5088236;28;20383;-60
2021/12/23 02:06:58;;;;;;;16.35;10.65;;;;;;;;;;5088974;28;20036;-60
2021/12/23 02:09:24;;;;;;;17.02;9.93;;;;;;;;;;5089084;28;20582;-60
2021/12/23 02:11:50;;;;;;;17.48;10.13;;;;;;;;;;5089118;28;20071;-59
2021/12/23 02:14:18;;;;;;;16.10;10.07;;;;;;;;;;5089034;28;20551;-60
2021/12/23 02:16:44;;;;;;;24.65;9.88;;;;;;;;;;5090009;28;20114;-60
2021/12/23 02:19:17;;;;;;;20.00;10.63;;;;;;;;;;5087158;28;20043;-59
2021/12/23 02:21:43;;;;;;;18.27;10.52;;;;;;;;;;5086227;28;20566;-60
2021/12/23 02:24:10;;;;;;;17.95;10.63;;;;;;;;;;5089486;28;20036;-59
2021/12/23 02:26:39;;;;;;;18.85;10.65;;;;;;;;;;5089146;28;20051;-59
2021/12/23 02:29:05;;;;;;;18.33;10.98;;;;;;;;;;5087097;28;20040;-60
2021/12/23 02:31:31;;;;;;;19.70;9.90;;;;;;;;;;5088428;28;20044;-59
2021/12/23 02:33:58;;;;;;;18.85;10.80;;;;;;;;;;5086204;28;20115;-58
2021/12/23 02:36:24;;;;;;;17.98;10.68;;;;;;;;;;5082038;28;20039;-59
2021/12/23 02:38:50;;;;;;;15.07;9.75;;;;;;;;;;5086233;28;20486;-59
2021/12/23 02:41:16;;;;;;;18.75;10.32;;;;;;;;;;5078695;28;20086;-58
2021/12/23 02:43:42;;;;;;;16.52;10.70;;;;;;;;;;5089575;28;20039;-59
2021/12/23 02:46:08;;;;;;;16.08;10.35;;;;;;;;;;5089233;28;20528;-59
2021/12/23 02:48:36;;;;;;;16.10;10.15;;;;;;;;;;5089516;28;20123;-58
2021/12/23 02:51:04;;;;;;;16.65;9.88;;;;;;;;;;5088998;28;20060;-59
2021/12/23 02:53:30;;;;;;;22.40;11.23;;;;;;;;;;5088249;28;20039;-59
2021/12/23 02:55:58;;;;;;;17.33;10.05;;;;;;;;;;5090266;28;20122;-60
2021/12/23 02:58:24;;;;;;;20.13;11.38;;;;;;;;;;5089545;28;20822;-61
2021/12/23 03:00:51;;;;;;;19.67;10.95;;;;;;;;;;5090124;28;20055;-59
2021/12/23 03:03:17;;;;;;;17.90;10.25;;;;;;;;;;5087569;28;20036;-59
2021/12/23 03:05:50;;;;;;;20.67;11.20;;;;;;;;;;5088090;28;20044;-59
2021/12/23 03:08:16;;;;;;;;;;;;;;;;;;5089135;28;20044;-60
2021/12/23 03:10:42;;;;;;;19.52;10.73;;;;;;;;;;5090042;28;19948;-59
2021/12/23 03:13:08;;;;;;;17.08;11.40;;;;;;;;;;5088887;28;20036;-61
2021/12/23 03:15:34;;;;;;;18.15;10.73;;;;;;;;;;5094207;28;20051;-59
2021/12/23 03:18:00;;;;;;;18.85;11.10;;;;;;;;;;5093523;28;20078;-58
2021/12/23 03:20:26;;;;;;;17.33;11.00;;;;;;;;;;5093931;28;20127;-59
2021/12/23 03:22:52;;;;;;;22.67;10.70;;;;;;;;;;5092872;28;20044;-59
2021/12/23 03:25:18;;;;;;;19.27;11.02;;;;;;;;;;5092957;28;20044;-59
2021/12/23 03:27:44;;;;;;;18.40;11.20;;;;;;;;;;5091720;28;20036;-60
2021/12/23 03:30:11;;;;;;;18.45;11.68;;;;;;;;;;5093671;28;20367;-59
2021/12/23 03:32:37;;;;;;;18.40;9.98;;;;;;;;;;5090933;28;20058;-60
2021/12/23 03:35:03;;;;;;;15.27;10.23;;;;;;;;;;5092424;28;20134;-60
2021/12/23 03:37:29;;;;;;;19.90;11.27;;;;;;;;;;5092443;28;20131;-59
2021/12/23 03:39:55;;;;;;;19.13;10.38;;;;;;;;;;5091878;28;20157;-60
2021/12/23 03:42:21;;;;;;;17.17;9.45;;;;;;;;;;5088829;28;20072;-59
2021/12/23 03:44:48;;;;;;;19.35;11.40;;;;;;;;;;5091372;28;20040;-58
2021/12/23 03:47:14;;;;;;;19.17;11.95;;;;;;;;;;5092654;28;20036;-60
2021/12/23 03:49:40;;;;;;;20.58;11.85;;;;;;;;;;5090429;28;20040;-59
2021/12/23 03:52:06;;;;;;;18.40;10.55;;;;;;;;;;5090740;28;20040;-60
2021/12/23 03:54:32;;;;;;;18.25;10.68;;;;;;;;;;5091012;28;20047;-59
2021/12/23 03:56:58;;;;;;;20.42;11.00;;;;;;;;;;5088771;28;20032;-60
2021/12/23 03:59:24;;;;;;;21.45;11.40;;;;;;;;;;5090260;28;20048;-60
2021/12/23 04:01:50;;;;;;;23.35;11.68;;;;;;;;;;5092670;28;20386;-59
2021/12/23 04:04:16;;;;;;;19.42;11.43;;;;;;;;;;5089704;28;20048;-60
2021/12/23 04:06:43;;;;;;;20.50;12.27;;;;;;;;;;5089712;28;20540;-59
2021/12/23 04:09:09;;;;;;;20.25;11.73;;;;;;;;;;5091588;28;20048;-59
2021/12/23 04:11:35;;;;;;;19.60;11.77;;;;;;;;;;5091539;28;20043;-60
2021/12/23 04:14:01;;;;;;;21.02;12.13;;;;;;;;;;5089270;28;20046;-59
2021/12/23 04:16:27;;;;;;;19.33;10.95;;;;;;;;;;5091325;28;20082;-60
2021/12/23 04:18:54;;;;;;;20.23;12.75;;;;;;;;;;5090655;28;20040;-59
2021/12/23 04:21:20;;;;;;;21.13;12.40;;;;;;;;;;5090601;28;20040;-59
2021/12/23 04:23:46;;;;;;;22.27;12.18;;;;;;;;;;5091593;28;20546;-59
2021/12/23 04:26:13;;;;;;;23.05;12.38;;;;;;;;;;5091872;28;20114;-60
2021/12/23 04:28:46;;;;;;;24.00;11.98;;;;;;;;;;5090926;28;21357;-59
2021/12/23 04:31:13;;;;;;;20.23;11.48;;;;;;;;;;5091764;28;20367;-59
2021/12/23 04:33:39;;;;;;;21.42;12.00;;;;;;;;;;5087034;28;20464;-58
2021/12/23 04:36:07;;;;;;;20.95;12.07;;;;;;;;;;5083884;28;20047;-59
2021/12/23 04:38:33;;;;;;;19.67;12.10;;;;;;;;;;5089791;28;20040;-59
2021/12/23 04:40:59;;;;;;;25.25;12.95;;;;;;;;;;5090906;28;20040;-60
2021/12/23 04:43:26;;;;;;;21.90;12.52;;;;;;;;;;5092150;28;20040;-59
2021/12/23 04:45:52;;;;;;;20.52;12.60;;;;;;;;;;5089557;28;20047;-59
2021/12/23 04:48:18;;;;;;;20.98;11.73;;;;;;;;;;5091572;28;20111;-59
2021/12/23 04:50:44;;;;;;;22.60;13.55;;;;;;;;;;5091651;28;20115;-60
2021/12/23 04:53:10;;;;;;;21.77;12.55;;;;;;;;;;5089687;28;20433;-59
2021/12/23 04:55:36;;;;;;;24.60;12.98;;;;;;;;;;5090716;28;20173;-60
2021/12/23 04:58:02;;;;;;;20.15;12.60;;;;;;;;;;5091702;28;20114;-59
2021/12/23 05:00:28;;;;;;;19.80;12.18;;;;;;;;;;5090913;28;20039;-59
2021/12/23 05:02:54;;;;;;;23.58;13.50;;;;;;;;;;5091667;28;20040;-60
2021/12/23 05:05:20;;;;;;;20.85;12.27;;;;;;;;;;5089210;28;20044;-60
2021/12/23 05:07:48;;;;;;;20.83;12.88;;;;;;;;;;5091589;28;20490;-61
2021/12/23 05:10:14;;;;;;;23.20;13.13;;;;;;;;;;5089700;28;20063;-60
2021/12/23 05:12:45;;;;;;;19.90;11.60;;;;;;;;;;5091539;28;20546;-59
2021/12/23 05:15:12;;;;;;;19.98;12.15;;;;;;;;;;5090424;28;20039;-59
2021/12/23 05:17:38;;;;;;;21.38;13.10;;;;;;;;;;5090540;28;20048;-59
2021/12/23 05:20:05;;;;;;;19.92;11.55;;;;;;;;;;5088922;28;20118;-59
2021/12/23 05:22:31;;;;;;;23.10;13.15;;;;;;;;;;5091582;28;20086;-59
2021/12/23 05:24:57;;;;;;;20.80;12.90;;;;;;;;;;5089501;28;20043;-60
2021/12/23 05:27:23;;;;;;;22.05;12.73;;;;;;;;;;5090738;28;20032;-59
2021/12/23 05:29:49;;;;;;;20.10;12.43;;;;;;;;;;5088407;28;20036;-60
2021/12/23 05:32:15;;;;;;;20.10;12.65;;;;;;;;;;5089438;28;20040;-59
2021/12/23 05:34:41;;;;;;;24.77;13.68;;;;;;;;;;5085500;28;20042;-59
2021/12/23 05:37:07;;;;;;;20.88;12.60;;;;;;;;;;5088216;28;20084;-59
2021/12/23 05:39:33;;;;;;;18.77;12.82;;;;;;;;;;5086118;28;20040;-60
2021/12/23 05:42:00;;;;;;;20.90;13.13;;;;;;;;;;5087813;28;20032;-59
2021/12/23 05:44:26;;;;;;;22.83;12.60;;;;;;;;;;5090595;28;20040;-60
2021/12/23 05:46:52;;;;;;;21.83;12.60;;;;;;;;;;5090483;28;20126;-60
2021/12/23 05:49:18;;;;;;;22.05;13.27;;;;;;;;;;5088147;28;20518;-59
2021/12/23 05:51:44;;;;;;;21.00;13.07;;;;;;;;;;5088856;28;20036;-59
2021/12/23 05:54:10;;;;;;;24.45;13.75;;;;;;;;;;5088819;28;20445;-60
2021/12/23 05:56:36;;;;;;;22.45;12.75;;;;;;;;;;5089316;28;20383;-60
2021/12/23 05:59:02;;;;;;;29.15;13.60;;;;;;;;;;5088695;28;20036;-58
2021/12/23 06:01:28;;;;;;;22.45;13.77;;;;;;;;;;5089081;28;20032;-60
2021/12/23 06:03:55;;;;;;;25.40;14.60;;;;;;;;;;5089065;28;20031;-60
2021/12/23 06:06:22;;;;;;;26.30;14.73;;;;;;;;;;5088501;28;20566;-59
2021/12/23 06:08:48;;;;;;;25.17;14.07;;;;;;;;;;5088005;28;20052;-60
2021/12/23 06:11:14;;;;;;;24.23;13.45;;;;;;;;;;5088745;28;20117;-59
2021/12/23 06:13:40;;;;;;;23.15;13.77;;;;;;;;;;5088547;28;20489;-60
2021/12/23 06:16:06;;;;;;;27.20;12.52;;;;;;;;;;5088104;28;20044;-60
2021/12/23 06:18:32;;;;;;;23.88;13.40;;;;;;;;;;5090295;28;20249;-60
2021/12/23 06:20:58;;;;;;;24.83;15.02;;;;;;;;;;5088633;28;20036;-59
2021/12/23 06:23:25;;;;;;;22.80;13.77;;;;;;;;;;5070464;28;20059;-60
2021/12/23 06:25:51;;;;;;;24.38;12.68;;;;;;;;;;5089655;28;20044;-58
2021/12/23 06:28:17;;;;;;;26.45;13.45;;;;;;;;;;5089111;28;20762;-60
2021/12/23 06:30:43;;;;;;;23.98;14.00;;;;;;;;;;5090028;28;20032;-59
2021/12/23 06:33:09;;;;;;;25.17;13.50;;;;;;;;;;5088992;28;20541;-59
2021/12/23 06:35:36;;;;;;;24.08;13.80;;;;;;;;;;5088326;28;20044;-59
2021/12/23 06:38:05;;;;;;;24.55;14.30;;;;;;;;;;5085329;28;20040;-60
2021/12/23 06:40:31;;;;;;;21.77;13.63;;;;;;;;;;5089034;28;20097;-60
2021/12/23 06:42:57;;;;;;;24.92;13.55;;;;;;;;;;5090460;28;20036;-60
2021/12/23 06:45:23;;;;;;;21.88;12.75;;;;;;;;;;5088646;28;20448;-60
2021/12/23 06:47:49;;;;;;;24.38;13.75;;;;;;;;;;5088491;28;20040;-60
2021/12/23 06:50:17;;;;;;;28.30;14.40;;;;;;;;;;5093908;28;20410;-60
2021/12/23 06:52:43;;;;;;;24.65;14.18;;;;;;;;;;5078188;28;20079;-60
2021/12/23 06:55:11;;;;;;;25.65;14.25;;;;;;;;;;5092713;28;20482;-59
2021/12/23 06:57:37;;;;;;;27.20;14.68;;;;;;;;;;5091680;28;20093;-61
2021/12/23 07:00:07;;;;;;;23.55;13.07;;;;;;;;;;5092391;28;20071;-61
2021/12/23 07:02:37;;;;;;;24.23;14.13;;;;;;;;;;5093467;28;20444;-61
2021/12/23 07:05:03;;;;;;;24.08;14.60;;;;;;;;;;5092906;28;20482;-61
2021/12/23 07:07:40;;;;;;;25.23;14.10;;;;;;;;;;5091967;28;20044;-60
2021/12/23 07:10:06;;;;;;;23.60;13.25;;;;;;;;;;5092207;28;20078;-61
2021/12/23 07:12:32;;;;;;;30.38;18.02;;;;;;;;;;5092711;28;20173;-59
2021/12/23 07:14:58;;;;;;;24.17;14.77;;;;;;;;;;5093408;28;20486;-59
2021/12/23 07:17:24;;;;;;;24.73;15.02;;;;;;;;;;5088974;28;20044;-59
2021/12/23 07:19:50;;;;;;;26.58;14.57;;;;;;;;;;5088904;28;20036;-59
2021/12/23 07:22:16;;;;;;;25.77;14.25;;;;;;;;;;5087000;28;20047;-60
2021/12/23 07:24:42;;;;;;;35.20;17.58;;;;;;;;;;5087006;28;20185;-61
2021/12/23 07:27:09;;;;;;;97.03;26.40;;;;;;;;;;5083375;28;20131;-60
2021/12/23 07:29:35;;;;;;;94.32;29.08;;;;;;;;;;5088689;28;20544;-60
2021/12/23 07:32:03;;;;;;;52.25;17.73;;;;;;;;;;5090394;28;20036;-58
2021/12/23 07:34:30;;;;;;;72.82;23.77;;;;;;;;;;5087265;28;20048;-61
2021/12/23 07:36:56;;;;;;;34.08;16.02;;;;;;;;;;5092612;28;20077;-60
2021/12/23 07:39:22;;;;;;;34.25;16.25;;;;;;;;;;5090608;28;20036;-62
2021/12/23 07:41:48;;;;;;;33.35;15.55;;;;;;;;;;5092479;28;20046;-60
2021/12/23 07:44:20;;;;;;;26.02;15.20;;;;;;;;;;5089704;28;20082;-61
2021/12/23 07:46:47;;;;;;;28.27;15.65;;;;;;;;;;5092649;28;20567;-61
2021/12/23 07:49:13;;;;;;;28.70;16.52;;;;;;;;;;5089857;28;20032;-58
2021/12/23 07:51:39;;;;;;;25.52;15.88;;;;;;;;;;5092674;28;20034;-61
2021/12/23 07:54:05;;;;;;;26.95;15.70;;;;;;;;;;5088048;28;20048;-61
2021/12/23 07:56:32;;;;;;;28.67;16.05;;;;;;;;;;5092255;28;20082;-59
2021/12/23 07:58:58;;;;;;;29.17;16.20;;;;;;;;;;5092342;28;20054;-59
2021/12/23 08:01:24;;;;;;;28.48;16.10;;;;;;;;;;5091175;28;20039;-61
2021/12/23 08:03:50;;;;;;;28.80;16.75;;;;;;;;;;5092773;28;20058;-61
2021/12/23 08:06:16;;;;;;;29.25;16.45;;;;;;;;;;5094310;28;20051;-60
2021/12/23 08:08:42;;;;;;;33.10;17.17;;;;;;;;;;5093000;28;20562;-60
2021/12/23 08:11:09;;;;;;;26.27;16.33;;;;;;;;;;5092169;28;20522;-59
2021/12/23 08:13:35;;;;;;;30.60;17.60;;;;;;;;;;5092620;28;20036;-60
2021/12/23 08:16:01;;;;;;;28.63;16.95;;;;;;;;;;5091947;28;20036;-60
2021/12/23 08:18:28;;;;;;;30.27;16.88;;;;;;;;;;5091804;28;20474;-60
2021/12/23 08:20:54;;;;;;;28.42;17.38;;;;;;;;;;5092759;28;20036;-60
2021/12/23 08:23:20;;;;;;;33.85;17.95;;;;;;;;;;5090637;28;20398;-60
2021/12/23 08:25:46;;;;;;;29.67;16.85;;;;;;;;;;5092234;28;21042;-59
2021/12/23 08:28:12;;;;;;;33.40;19.10;;;;;;;;;;5091757;28;20505;-61
2021/12/23 08:30:40;;;;;;;32.88;18.25;;;;;;;;;;5090337;28;20047;-61
2021/12/23 08:33:06;;;;;;;29.30;17.92;;;;;;;;;;5092372;28;20383;-61
2021/12/23 08:35:32;;;;;;;29.98;18.17;;;;;;;;;;5091245;28;20047;-60
2021/12/23 08:37:58;;;;;;;34.83;18.80;;;;;;;;;;5091664;28;20040;-61
2021/12/23 08:40:27;;;;;;;32.33;18.23;;;;;;;;;;5091802;28;20040;-61
2021/12/23 08:42:53;;;;;;;32.13;18.70;;;;;;;;;;5091632;28;20094;-59
2021/12/23 08:45:20;;;;;;;33.28;18.63;;;;;;;;;;5091847;28;20127;-60
2021/12/23 08:47:46;;;;;;;35.50;19.48;;;;;;;;;;5091532;28;20043;-61
2021/12/23 08:50:14;;;;;;;38.72;19.15;;;;;;;;;;5091964;28;20158;-60
2021/12/23 08:52:40;;;;;;;34.45;19.90;;;;;;;;;;5091176;28;20062;-59
2021/12/23 08:55:08;;;;;;;36.00;19.60;;;;;;;;;;5092150;28;20596;-60
2021/12/23 08:57:34;;;;;;;36.50;20.17;;;;;;;;;;5091857;28;20043;-59
2021/12/23 09:00:00;;;;;;;39.67;19.95;;;;;;;;;;5091761;28;20089;-60
2021/12/23 09:02:26;;;;;;;35.67;20.27;;;;;;;;;;5091008;28;20043;-60
2021/12/23 09:04:53;;;;;;;42.20;21.58;;;;;;;;;;5091230;28;20115;-59
2021/12/23 09:07:19;;;;;;;38.33;20.90;;;;;;;;;;5091302;28;20044;-60
2021/12/23 09:09:51;;;;;;;37.90;20.98;;;;;;;;;;5091390;28;20083;-60
2021/12/23 09:12:17;;;;;;;40.87;21.67;;;;;;;;;;5087749;28;20090;-59
2021/12/23 09:14:43;;;;;;;42.33;22.48;;;;;;;;;;5091192;28;20290;-59
2021/12/23 09:17:09;;;;;;;42.67;22.95;;;;;;;;;;5091117;28;20075;-60
2021/12/23 09:19:35;;;;;;;42.20;21.98;;;;;;;;;;5090855;28;20054;-58
2021/12/23 09:22:02;;;;;;;43.25;23.33;;;;;;;;;;5091286;28;20079;-60
2021/12/23 09:24:28;;;;;;;46.45;22.42;;;;;;;;;;5090744;28;20115;-60
2021/12/23 09:27:18;;;;;;;41.65;20.90;;;;;;;;;;5090318;28;20101;-60
2021/12/23 09:34:55;;;;;;;45.10;23.42;;;;;;;;;;5090733;28;20372;-60
2021/12/23 09:37:21;;;;;;;46.25;23.50;;;;;;;;;;5090306;28;20536;-60
2021/12/23 09:39:53;;;;;;;47.50;24.20;;;;;;;;;;5090933;28;20563;-60
2021/12/23 09:42:20;;;;;;;44.90;23.33;;;;;;;;;;5089526;28;20209;-60
2021/12/23 09:44:47;;;;;;;42.90;23.42;;;;;;;;;;5088831;28;20131;-61
2021/12/23 09:47:13;;;;;;;41.88;22.70;;;;;;;;;;5090373;28;20040;-59
2021/12/23 09:49:39;;;;;;;43.47;22.17;;;;;;;;;;5090961;28;20044;-60
2021/12/23 09:52:07;;;;;;;42.70;22.33;;;;;;;;;;5090204;28;20047;-61
2021/12/23 09:54:35;;;;;;;44.28;22.77;;;;;;;;;;5086821;28;20055;-60
2021/12/23 09:57:01;;;;;;;42.05;22.33;;;;;;;;;;5089866;28;20032;-59
2021/12/23 09:59:28;;;;;;;47.30;23.27;;;;;;;;;;5090035;28;20093;-60
2021/12/23 10:01:54;;;;;;;44.60;21.73;;;;;;;;;;5089614;28;20486;-60
2021/12/23 10:04:20;;;;;;;48.60;22.92;;;;;;;;;;5090405;28;20618;-59
2021/12/23 10:06:48;;;;;;;46.40;23.02;;;;;;;;;;5090692;28;20060;-60
2021/12/23 10:09:26;;;;;;;43.80;21.92;;;;;;;;;;5089807;28;20052;-59
2021/12/23 10:30:56;;;;;;;46.97;22.92;;;;;;;;;;5011359;28;20045;-59
2021/12/23 10:38:52;;;;;;;50.55;23.92;;;;;;;;;;5007483;28;20060;-59
2021/12/23 10:41:23;;;;;;;45.75;23.67;;;;;;;;;;5007472;28;20127;-61
2021/12/23 10:43:53;;;;;;;48.13;23.40;;;;;;;;;;5007301;28;20046;-60
2021/12/23 10:46:40;;;;;;;49.70;23.33;;;;;;;;;;4995019;28;20125;-59
2021/12/23 10:52:08;;;;;;;47.80;22.92;;;;;;;;;;4987425;28;20117;-59
2021/12/23 11:00:23;;;;;;;44.58;22.75;;;;;;;;;;4988235;28;20051;-59
2021/12/23 11:03:01;;;;;;;46.03;22.95;;;;;;;;;;4988012;28;20058;-61
2021/12/23 11:05:32;;;;;;;45.28;23.05;;;;;;;;;;4988017;28;20121;-58
2021/12/23 11:08:12;;;;;;;46.83;22.63;;;;;;;;;;4975110;28;20063;-59
2021/12/23 11:38:13;;;;;;;50.88;23.52;;;;;;;;;;5050004;28;20047;-60
2021/12/23 11:45:47;;;;;;;46.08;23.33;;;;;;;;;;5050583;28;20357;-60
2021/12/23 11:48:14;;;;;;;42.20;22.35;;;;;;;;;;5049898;28;20132;-60
2021/12/23 11:50:53;;;;;;;44.78;23.25;;;;;;;;;;5050150;28;20044;-59
2021/12/23 11:53:19;;;;;;;49.67;24.02;;;;;;;;;;5050148;28;20407;-60
2021/12/23 11:55:45;;;;;;;48.78;23.45;;;;;;;;;;5050371;28;20052;-58
2021/12/23 11:58:13;;;;;;;50.42;24.05;;;;;;;;;;5085681;28;20693;-60
2021/12/23 12:00:47;;;;;;;48.50;23.02;;;;;;;;;;5092034;28;20118;-58
2021/12/23 12:03:14;;;;;;;47.67;23.60;;;;;;;;;;5091264;28;20064;-60
2021/12/23 12:05:40;;;;;;;44.65;21.65;;;;;;;;;;5091932;28;20501;-59
2021/12/23 12:08:06;;;;;;;47.05;23.45;;;;;;;;;;5088815;28;20051;-59
2021/12/23 12:10:33;;;;;;;47.80;24.13;;;;;;;;;;5091696;28;20106;-59
2021/12/23 12:13:04;;;;;;;47.92;23.20;;;;;;;;;;5092146;28;20406;-60
2021/12/23 12:15:39;;;;;;;45.47;22.40;;;;;;;;;;5092396;28;20122;-60
2021/12/23 12:18:06;;;;;;;47.03;22.98;;;;;;;;;;5091952;28;20103;-59
2021/12/23 12:20:36;;;;;;;46.08;23.13;;;;;;;;;;5092418;28;20040;-58
2021/12/23 12:23:04;;;;;;;48.50;23.50;;;;;;;;;;5092301;28;20097;-60
2021/12/23 12:25:30;;;;;;;44.90;23.70;;;;;;;;;;5091806;28;20048;-60
2021/12/23 12:27:56;;;;;;;48.45;23.63;;;;;;;;;;5093012;28;20112;-59
2021/12/23 12:30:54;;;;;;;51.65;23.52;;;;;;;;;;5092118;28;20124;-59
2021/12/23 12:33:23;;;;;;;45.78;23.13;;;;;;;;;;5066096;28;20415;-60
2021/12/23 12:36:11;;;;;;;48.97;24.30;;;;;;;;;;5067745;28;20514;-58
2021/12/23 12:38:38;;;;;;;44.85;22.70;;;;;;;;;;5007010;28;20201;-58
2021/12/23 12:41:23;;;;;;;45.90;24.52;;;0.80;99.90;;;;;;5012668;28;20116;-60
2021/12/23 12:44:23;;;;;;;45.13;22.83;;;;;;;;;;5013459;28;20046;-61
2021/12/23 12:47:11;;;;;;;48.13;22.67;;;;;;;;;;5022408;28;20097;-62
2021/12/23 12:49:40;;;;;;;49.03;23.38;;;;;;;;;;4992381;28;20765;-59
2021/12/23 12:52:31;;;;;;;48.10;23.38;;;;;;;;;;5008483;28;20040;-61
2021/12/23 12:54:59;;;;;;;44.95;23.13;;;;;;;;;;5008518;28;20492;-61
2021/12/23 12:57:31;;;;;;;49.13;22.83;;;;;;;;;;5008911;28;20049;-62
2021/12/23 12:59:57;;;;;;;49.28;23.38;;;;;;;;;;5008716;28;20038;-60
2021/12/23 13:02:28;;;;;;;46.58;23.67;;;;;;;;;;5008477;28;20509;-62
2021/12/23 13:05:11;;;;;;;47.28;22.88;;;;;;;;;;5008773;28;20588;-61
2021/12/23 13:07:41;;;;;;;49.38;23.38;;;;;;;;;;4992429;28;20042;-61
2021/12/23 13:10:15;;;;;;;50.88;23.17;;;;;;;;;;4991742;28;20559;-61
2021/12/23 13:12:49;;;;;;;50.85;24.45;;;;;;;;;;5007878;28;20081;-62
2021/12/23 13:15:20;;;;;;;45.60;23.13;;;;;;;;;;5034442;28;20079;-61
2021/12/23 13:17:55;;;;;;;45.08;22.02;;;;;;;;;;5090950;28;20040;-59
2021/12/23 13:20:37;;;;;;;49.38;24.80;;;;;;;;;;5091542;28;20437;-61
2021/12/23 13:23:06;;;;;;;48.83;24.23;;;;;;;;;;5089864;28;20047;-62
2021/12/23 13:25:32;;;;;;;50.85;23.30;;;;;;;;;;5090074;28;20098;-60
2021/12/23 13:28:01;;;;;;;44.95;22.42;;;;;;;;;;5090675;28;20128;-60
2021/12/23 13:30:27;;;;;;;51.25;22.63;;;;;;;;;;5090751;28;20444;-62
2021/12/23 13:32:58;;;;;;;46.33;23.50;;;;;;;;;;5091205;28;20036;-60
2021/12/23 13:35:24;;;;;;;46.95;23.75;;;;;;;;;;5090599;28;20036;-59
2021/12/23 13:37:50;;;;;;;45.25;21.77;;;;;;;;;;5090896;28;20040;-60
2021/12/23 13:40:26;;;;;;;50.95;24.40;;;;;;;;;;5089185;28;20047;-60
2021/12/23 13:42:52;;;;;;;44.33;23.40;;;;;;;;;;5090693;28;20044;-61
2021/12/23 13:45:19;;;;;;;46.58;22.38;;;;;;;;;;5089107;28;20043;-61
2021/12/23 13:47:45;;;;;;;48.65;24.00;;;;;;;;;;5090610;28;20451;-60
2021/12/23 13:50:12;;;;;;;44.72;23.40;;;;;;;;;;5089940;28;20028;-59
2021/12/23 13:52:42;;;;;;;46.85;22.80;;;;;;;;;;5090658;28;20032;-60
2021/12/23 13:55:16;;;;;;;48.67;23.45;;;;;;;;;;5088156;28;20127;-61
2021/12/23 13:57:49;;;;;;;48.47;23.70;;;;;;;;;;5090852;28;20055;-60
2021/12/23 14:00:16;;;;;;;46.83;23.08;;;;;;;;;;5089630;28;20123;-61
2021/12/23 14:02:43;;;;;;;47.67;23.60;;;;;;;;;;5090055;28;20057;-59
2021/12/23 14:05:10;;;;;;;42.53;21.02;;;;;;;;;;5090156;28;20044;-59
2021/12/23 14:07:36;;;;;;;45.10;23.20;;;;;;;;;;5090082;28;20494;-60
2021/12/23 14:10:04;;;;;;;54.08;24.15;;;;;;;;;;5092596;28;20044;-61
2021/12/23 14:12:43;;;;;;;49.08;24.20;;;;;;;;;;5089915;28;20051;-61
2021/12/23 14:15:11;;;;;;;42.08;21.90;;;;;;;;;;5090052;28;20064;-60
2021/12/23 14:17:40;;;;;;;43.47;22.60;;;;;;;;;;5090388;28;20081;-62
2021/12/23 14:26:05;;;;;;;45.25;23.42;;;;;;;;;;5090071;28;20040;-57
2021/12/23 14:28:35;;;;;;;51.40;23.33;;;;;;;;;;5088480;28;20060;-59
2021/12/23 14:31:04;;;;;;;46.45;22.27;;;;;;;;;;5092720;28;20042;-59
2021/12/23 14:33:32;;;;;;;48.47;23.77;;;;;;;;;;5089907;28;20032;-59
2021/12/23 14:36:04;;;;;;;49.03;23.20;;;;;;;;;;5089973;28;20103;-59
2021/12/23 14:38:32;;;;;;;44.78;22.77;;;;;;;;;;5090014;28;20118;-59
2021/12/23 14:40:59;;;;;;;47.83;23.20;;;;;;;;;;5091158;28;20432;-61
2021/12/23 14:43:25;;;;;;;43.60;22.17;;;;;;;;;;5089917;28;20046;-59
2021/12/23 14:45:57;;;;;;;47.38;23.25;;;;;;;;;;5090213;28;20044;-57
2021/12/23 14:48:24;;;;;;;44.95;22.92;;;;;;;;;;5090035;28;20137;-57
2021/12/23 14:51:01;;;;;;;49.03;23.55;;;;;;;;;;5090157;28;20036;-59
2021/12/23 14:53:27;;;;;;;48.60;22.92;;;;;;;;;;5092025;28;20432;-59
2021/12/23 14:55:55;;;;;;;48.67;22.38;;;;;;;;;;5089944;28;20502;-57
2021/12/23 14:58:21;;;;;;;48.10;23.05;;;;;;;;;;5088702;28;20036;-59
2021/12/23 15:00:47;;;;;;;48.45;23.45;;;;;;;;;;5089787;28;20085;-60
2021/12/23 15:03:17;;;;;;;48.53;23.98;;;;;;;;;;5093172;28;20043;-59
2021/12/23 15:05:47;;;;;;;45.08;24.40;;;;;;;;;;5089494;28;20055;-58
2021/12/23 15:08:20;;;;;;;47.85;23.77;;;;;;;;;;5089876;28;20047;-59
2021/12/23 15:10:50;;;;;;;47.53;23.52;;;;;;;;;;5092010;28;20060;-59
2021/12/23 15:13:19;;;;;;;51.65;22.48;;;;;;;;;;5094591;28;20040;-58
2021/12/23 15:15:45;;;;;;;50.42;23.17;;;;;;;;;;5091833;28;20058;-59
2021/12/23 15:18:29;;;;;;;47.42;23.40;;;;;;;;;;5093661;28;20043;-59
2021/12/23 15:20:57;;;;;;;50.13;24.60;;;;;;;;;;5093503;28;20044;-59
2021/12/23 15:23:40;;;;;;;52.28;23.40;;;;;;;;;;5074508;28;20044;-60
2021/12/23 15:26:24;;;;;;;49.80;21.98;;;;;;;;;;5084993;28;20079;-63
2021/12/23 15:29:09;;;;;;;46.38;24.02;;;;;;;;;;5092247;28;20074;-63
2021/12/23 15:31:35;;;;;;;42.25;21.08;;;;;;;;;;5093075;28;20044;-61
2021/12/23 15:34:06;;;;;;;48.42;23.50;;;;;;;;;;5093154;28;20076;-61
2021/12/23 15:36:33;;;;;;;45.10;22.58;;;;;;;;;;5093049;28;20040;-59
2021/12/23 15:38:59;;;;;;;53.33;22.35;;;;;;;;;;5093504;28;20044;-58
2021/12/23 15:41:25;;;;;;;49.13;21.75;;;;;;;;;;5093597;28;20064;-58
2021/12/23 15:43:51;;;;;;;53.47;24.73;;;;;;;;;;5093122;28;20505;-60
2021/12/23 15:46:17;;;;;;;47.85;23.17;;;;;;;;;;5093050;28;20119;-60